Willingham, United Kingdom
Current Conditions -  °F | °C
As of 5:50 AM on Friday 19 Dec 2014 (Local Time) from EGXP Reporting Station
Few Clouds Few Clouds  
Wind Chill: 35°   Ceiling: Unl
Heat Index: 43°   Visibility: 6mi
Dew Point: 37°   Wind: 18mph
Humidity: 81%   Direction: 280°W
Pressure: 29.68"   Gusts: NA
Location:  53.35°N, 0.68°W
Report Text: EGXP 190550Z AUTO 28016KT 9999 // FEW037/// 06/03 Q1005
Loading
Personal Weather Stations






























Interactive Weather Map New forecast layout! Learn more

10-Day Weather Forecast

Advertisements
Track Severe Weather on mobile